createdAt,value
2023-05-11T04:42:11.404Z,12.08
2023-05-11T04:45:14.181Z,12.06
2023-05-11T04:48:20.568Z,12.15
2023-05-11T04:51:23.658Z,12.15
2023-05-11T04:54:26.227Z,12.31
2023-05-11T04:57:28.906Z,12.23
2023-05-11T05:00:31.575Z,12.40
2023-05-11T05:03:34.657Z,12.43
2023-05-11T05:06:38.461Z,12.84
2023-05-11T05:09:42.496Z,12.80
2023-05-11T05:12:47.110Z,12.74
2023-05-11T05:15:49.751Z,12.75
2023-05-11T05:18:52.368Z,12.85
2023-05-11T05:21:55.022Z,12.86
2023-05-11T05:24:57.862Z,13.22
2023-05-11T05:28:00.503Z,13.42
2023-05-11T05:31:03.182Z,13.47
2023-05-11T05:34:05.874Z,13.55
2023-05-11T05:37:08.630Z,13.49
2023-05-11T05:40:11.603Z,13.50
2023-05-11T05:43:14.191Z,13.45
2023-05-11T05:46:16.858Z,13.86
2023-05-11T05:49:19.422Z,13.77
2023-05-11T05:52:21.955Z,14.23
2023-05-11T05:55:24.562Z,14.52
2023-05-11T05:58:27.113Z,14.80
2023-05-11T06:01:29.753Z,14.92
2023-05-11T06:04:32.413Z,14.99
2023-05-11T06:07:35.094Z,14.74
2023-05-11T06:10:37.824Z,14.67
2023-05-11T06:13:40.474Z,14.31
2023-05-11T06:16:43.233Z,14.65
2023-05-11T06:19:46.336Z,14.77
2023-05-11T06:22:48.842Z,14.76
2023-05-11T06:25:51.421Z,14.97
2023-05-11T06:28:53.967Z,15.18
2023-05-11T06:31:57.026Z,15.15
2023-05-11T06:34:59.870Z,15.29
2023-05-11T06:38:07.131Z,15.52
2023-05-11T06:41:11.664Z,15.79
2023-05-11T06:44:14.356Z,15.69
2023-05-11T06:47:16.859Z,16.22
2023-05-11T06:50:21.296Z,16.16
2023-05-11T06:53:24.481Z,16.21
2023-05-11T06:56:27.933Z,16.23
2023-05-11T06:59:30.795Z,16.40
2023-05-11T07:02:33.426Z,16.20
2023-05-11T07:05:37.573Z,16.45
2023-05-11T07:08:40.110Z,16.25
2023-05-11T07:11:42.836Z,15.91
2023-05-11T07:14:45.462Z,16.16
2023-05-11T07:17:48.216Z,16.27
2023-05-11T07:20:51.039Z,16.14
2023-05-11T07:23:54.319Z,16.33
2023-05-11T07:26:57.553Z,16.43
2023-05-11T07:30:00.248Z,16.37
2023-05-11T07:33:03.359Z,16.52
2023-05-11T07:36:07.453Z,16.40
2023-05-11T07:39:10.882Z,16.78
2023-05-11T07:42:13.448Z,16.59
2023-05-11T07:45:16.014Z,16.75
2023-05-11T07:48:18.575Z,16.90
2023-05-11T07:51:21.133Z,16.95
2023-05-11T07:54:23.928Z,17.18
2023-05-11T07:57:26.614Z,17.33
2023-05-11T08:00:29.427Z,17.40
2023-05-11T08:03:32.110Z,17.42
2023-05-11T08:06:34.805Z,17.61
2023-05-11T08:09:37.514Z,17.57
2023-05-11T08:12:40.030Z,17.70
2023-05-11T08:15:42.584Z,17.73
2023-05-11T08:18:45.453Z,17.73
2023-05-11T08:21:48.376Z,17.70
2023-05-11T08:24:51.505Z,17.96
2023-05-11T08:27:54.169Z,17.96
2023-05-11T08:30:57.543Z,18.15
2023-05-11T08:34:00.365Z,18.15
2023-05-11T08:37:03.270Z,18.19
2023-05-11T08:40:06.733Z,18.28
2023-05-11T08:43:09.175Z,18.48
2023-05-11T08:46:12.375Z,18.44
2023-05-11T08:49:15.395Z,18.50
2023-05-11T08:52:17.957Z,18.74
2023-05-11T08:55:20.694Z,18.75
2023-05-11T08:58:23.409Z,18.52
2023-05-11T09:01:28.589Z,18.70
2023-05-11T09:04:31.244Z,18.98
2023-05-11T09:07:34.263Z,18.78
2023-05-11T09:10:37.674Z,18.95
2023-05-11T09:13:40.462Z,18.97
2023-05-11T09:16:43.149Z,18.76
2023-05-11T09:20:00.116Z,19.07
2023-05-11T09:23:02.692Z,19.37
2023-05-11T09:26:05.422Z,19.17
2023-05-11T09:29:08.033Z,18.93
2023-05-11T09:32:10.772Z,18.92
2023-05-11T09:35:24.002Z,18.84
2023-05-11T09:38:26.944Z,18.97
2023-05-11T09:41:34.900Z,19.01
2023-05-11T09:44:39.727Z,19.24
2023-05-11T09:47:46.407Z,19.53
2023-05-11T09:50:59.646Z,19.45
2023-05-11T09:54:02.774Z,19.27
2023-05-11T09:57:05.763Z,19.58
2023-05-11T10:00:14.517Z,19.43
2023-05-11T10:03:17.356Z,19.84
2023-05-11T10:06:20.581Z,19.83
2023-05-11T10:09:26.104Z,19.63
2023-05-11T10:12:29.000Z,19.91
2023-05-11T10:15:32.900Z,19.89
2023-05-11T10:18:36.803Z,19.55
2023-05-11T10:21:39.687Z,19.48
2023-05-11T10:24:42.327Z,19.56
2023-05-11T10:27:44.879Z,19.35
2023-05-11T10:30:47.576Z,19.09
2023-05-11T10:33:53.068Z,19.40
2023-05-11T10:37:08.220Z,19.34
2023-05-11T10:40:11.712Z,19.33
2023-05-11T10:43:45.394Z,19.68
2023-05-11T10:46:57.234Z,19.81
2023-05-11T10:50:11.677Z,20.06
2023-05-11T10:53:32.945Z,19.75
2023-05-11T10:56:53.222Z,19.78
2023-05-11T11:00:21.026Z,19.58
2023-05-11T11:03:24.150Z,19.55
2023-05-11T11:06:28.635Z,19.89
2023-05-11T11:09:56.694Z,19.82
2023-05-11T11:13:18.757Z,19.54
2023-05-11T11:16:23.808Z,19.54
2023-05-11T11:19:29.608Z,19.55
2023-05-11T11:22:34.975Z,19.52
2023-05-11T11:25:57.769Z,19.43
2023-05-11T11:29:03.092Z,19.75
2023-05-11T11:32:23.948Z,19.52
2023-05-11T11:35:42.515Z,19.76
2023-05-11T11:38:59.515Z,19.57
2023-05-11T11:42:05.654Z,19.45
2023-05-11T11:45:27.012Z,19.73
2023-05-11T11:48:36.305Z,19.72
2023-05-11T11:51:40.599Z,19.90
2023-05-11T11:54:46.616Z,19.98
2023-05-11T11:57:51.504Z,20.06
2023-05-11T12:00:54.007Z,19.93
2023-05-11T12:04:05.939Z,19.84
2023-05-11T12:07:09.632Z,19.83
2023-05-11T12:10:15.092Z,20.14
2023-05-11T12:13:18.311Z,20.04
2023-05-11T12:16:24.718Z,20.20
2023-05-11T12:19:28.413Z,20.20
2023-05-11T12:22:30.910Z,20.15
2023-05-11T12:25:33.447Z,20.35
2023-05-11T12:28:36.248Z,20.46
2023-05-11T12:31:39.473Z,20.45
2023-05-11T12:34:42.353Z,20.28
2023-05-11T12:37:45.037Z,20.29
2023-05-11T12:40:51.717Z,20.41
2023-05-11T12:43:54.820Z,20.57
2023-05-11T12:46:57.460Z,20.58
2023-05-11T12:50:00.134Z,20.67
2023-05-11T12:53:13.689Z,20.80
2023-05-11T12:56:18.000Z,20.88
2023-05-11T12:59:38.790Z,20.97
2023-05-11T13:02:50.462Z,21.05
2023-05-11T13:06:04.114Z,21.04
2023-05-11T13:09:06.686Z,20.99
2023-05-11T13:12:19.778Z,21.13
2023-05-11T13:15:36.683Z,20.76
2023-05-11T13:18:39.433Z,20.86
2023-05-11T13:21:42.277Z,20.72
2023-05-11T13:24:44.855Z,20.77
2023-05-11T13:27:47.536Z,20.52
2023-05-11T13:30:51.709Z,20.59
2023-05-11T13:33:54.338Z,20.65
2023-05-11T13:36:57.024Z,20.51
2023-05-11T13:39:59.661Z,20.42
2023-05-11T13:43:02.312Z,20.36
2023-05-11T13:46:05.267Z,20.13
2023-05-11T13:49:08.711Z,20.51
2023-05-11T13:52:11.468Z,20.54
2023-05-11T13:55:14.104Z,20.41
2023-05-11T13:58:17.975Z,20.30
2023-05-11T14:01:20.720Z,20.20
2023-05-11T14:04:23.242Z,20.28
2023-05-11T14:07:39.176Z,20.30
2023-05-11T14:10:45.773Z,20.16
2023-05-11T14:13:48.468Z,20.35
2023-05-11T14:16:51.049Z,20.27
2023-05-11T14:19:53.615Z,20.26
2023-05-11T14:22:56.294Z,20.50
2023-05-11T14:25:58.895Z,20.17
2023-05-11T14:29:01.513Z,20.22
2023-05-11T14:32:04.547Z,20.23
2023-05-11T14:35:07.369Z,20.18
2023-05-11T14:38:10.517Z,20.38
2023-05-11T14:41:13.213Z,20.10
2023-05-11T14:44:16.234Z,20.21
2023-05-11T14:47:18.861Z,20.40
2023-05-11T14:50:21.463Z,20.28
2023-05-11T14:53:24.111Z,20.43
2023-05-11T14:56:26.759Z,20.09
2023-05-11T14:59:29.314Z,20.07
2023-05-11T15:02:31.924Z,19.97
2023-05-11T15:05:34.950Z,20.01
